sensor_id;sensor_type;location;lat;lon;timestamp;P1;durP1;ratioP1;P2;durP2;ratioP2
19306;SDS011;9788;48.194;16.318;2024-01-30T00:00:04;30.07;;;15.93;;
19306;SDS011;9788;48.194;16.318;2024-01-30T00:02:34;28.90;;;14.00;;
19306;SDS011;9788;48.194;16.318;2024-01-30T00:05:03;29.07;;;14.23;;
19306;SDS011;9788;48.194;16.318;2024-01-30T00:07:32;30.47;;;14.73;;
19306;SDS011;9788;48.194;16.318;2024-01-30T00:10:02;27.80;;;15.00;;
19306;SDS011;9788;48.194;16.318;2024-01-30T00:12:33;25.93;;;15.20;;
19306;SDS011;9788;48.194;16.318;2024-01-30T00:15:04;26.63;;;15.53;;
19306;SDS011;9788;48.194;16.318;2024-01-30T00:17:36;26.80;;;14.50;;
19306;SDS011;9788;48.194;16.318;2024-01-30T00:20:05;26.10;;;15.03;;
19306;SDS011;9788;48.194;16.318;2024-01-30T00:22:35;29.40;;;14.80;;
19306;SDS011;9788;48.194;16.318;2024-01-30T00:25:05;29.27;;;15.43;;
19306;SDS011;9788;48.194;16.318;2024-01-30T00:27:34;29.30;;;15.83;;
19306;SDS011;9788;48.194;16.318;2024-01-30T00:30:04;31.07;;;15.80;;
19306;SDS011;9788;48.194;16.318;2024-01-30T00:32:35;32.47;;;15.40;;
19306;SDS011;9788;48.194;16.318;2024-01-30T00:35:06;32.37;;;17.33;;
19306;SDS011;9788;48.194;16.318;2024-01-30T00:37:36;27.17;;;15.33;;
19306;SDS011;9788;48.194;16.318;2024-01-30T00:40:08;26.00;;;14.00;;
19306;SDS011;9788;48.194;16.318;2024-01-30T00:42:42;28.70;;;14.50;;
19306;SDS011;9788;48.194;16.318;2024-01-30T00:45:11;32.40;;;14.40;;
19306;SDS011;9788;48.194;16.318;2024-01-30T00:47:43;29.13;;;15.17;;
19306;SDS011;9788;48.194;16.318;2024-01-30T00:50:12;31.60;;;14.80;;
19306;SDS011;9788;48.194;16.318;2024-01-30T00:52:40;23.80;;;13.23;;
19306;SDS011;9788;48.194;16.318;2024-01-30T00:55:13;29.57;;;14.40;;
19306;SDS011;9788;48.194;16.318;2024-01-30T00:57:41;28.73;;;15.53;;
19306;SDS011;9788;48.194;16.318;2024-01-30T01:00:12;28.70;;;15.10;;
19306;SDS011;9788;48.194;16.318;2024-01-30T01:02:43;27.63;;;14.73;;
19306;SDS011;9788;48.194;16.318;2024-01-30T01:05:13;25.73;;;13.97;;
19306;SDS011;9788;48.194;16.318;2024-01-30T01:07:44;25.50;;;13.83;;
19306;SDS011;9788;48.194;16.318;2024-01-30T01:10:16;28.73;;;14.83;;
19306;SDS011;9788;48.194;16.318;2024-01-30T01:12:45;26.80;;;14.87;;
19306;SDS011;9788;48.194;16.318;2024-01-30T01:15:16;24.37;;;14.40;;
19306;SDS011;9788;48.194;16.318;2024-01-30T01:17:44;27.53;;;14.27;;
19306;SDS011;9788;48.194;16.318;2024-01-30T01:20:15;28.03;;;14.90;;
19306;SDS011;9788;48.194;16.318;2024-01-30T01:22:43;25.43;;;14.30;;
19306;SDS011;9788;48.194;16.318;2024-01-30T01:25:11;25.90;;;14.97;;
19306;SDS011;9788;48.194;16.318;2024-01-30T01:27:43;29.77;;;15.20;;
19306;SDS011;9788;48.194;16.318;2024-01-30T01:30:17;27.43;;;15.03;;
19306;SDS011;9788;48.194;16.318;2024-01-30T01:32:48;27.27;;;15.00;;
19306;SDS011;9788;48.194;16.318;2024-01-30T01:35:22;28.93;;;14.50;;
19306;SDS011;9788;48.194;16.318;2024-01-30T01:37:53;33.17;;;15.50;;
19306;SDS011;9788;48.194;16.318;2024-01-30T01:40:22;31.27;;;15.23;;
19306;SDS011;9788;48.194;16.318;2024-01-30T01:42:54;30.20;;;16.10;;
19306;SDS011;9788;48.194;16.318;2024-01-30T01:45:23;31.67;;;15.40;;
19306;SDS011;9788;48.194;16.318;2024-01-30T01:47:52;33.60;;;15.23;;
19306;SDS011;9788;48.194;16.318;2024-01-30T01:50:22;36.20;;;16.67;;
19306;SDS011;9788;48.194;16.318;2024-01-30T01:52:51;30.80;;;16.67;;
19306;SDS011;9788;48.194;16.318;2024-01-30T01:55:21;30.70;;;16.10;;
19306;SDS011;9788;48.194;16.318;2024-01-30T01:57:54;29.00;;;15.50;;
19306;SDS011;9788;48.194;16.318;2024-01-30T02:00:24;27.70;;;15.60;;
19306;SDS011;9788;48.194;16.318;2024-01-30T02:02:53;28.67;;;15.30;;
19306;SDS011;9788;48.194;16.318;2024-01-30T02:05:24;30.53;;;15.60;;
19306;SDS011;9788;48.194;16.318;2024-01-30T02:07:52;27.57;;;14.87;;
19306;SDS011;9788;48.194;16.318;2024-01-30T02:10:25;32.97;;;15.97;;
19306;SDS011;9788;48.194;16.318;2024-01-30T02:12:57;28.97;;;14.93;;
19306;SDS011;9788;48.194;16.318;2024-01-30T02:15:26;28.73;;;14.43;;
19306;SDS011;9788;48.194;16.318;2024-01-30T02:17:55;33.97;;;15.20;;
19306;SDS011;9788;48.194;16.318;2024-01-30T02:20:24;28.83;;;15.60;;
19306;SDS011;9788;48.194;16.318;2024-01-30T02:22:57;28.80;;;15.53;;
19306;SDS011;9788;48.194;16.318;2024-01-30T02:25:32;27.90;;;15.93;;
19306;SDS011;9788;48.194;16.318;2024-01-30T02:28:01;30.10;;;14.97;;
19306;SDS011;9788;48.194;16.318;2024-01-30T02:30:31;31.87;;;15.27;;
19306;SDS011;9788;48.194;16.318;2024-01-30T02:32:59;26.43;;;15.30;;
19306;SDS011;9788;48.194;16.318;2024-01-30T02:35:27;32.80;;;16.00;;
19306;SDS011;9788;48.194;16.318;2024-01-30T02:37:59;28.47;;;14.93;;
19306;SDS011;9788;48.194;16.318;2024-01-30T02:40:29;25.53;;;14.97;;
19306;SDS011;9788;48.194;16.318;2024-01-30T02:42:59;34.17;;;15.13;;
19306;SDS011;9788;48.194;16.318;2024-01-30T02:45:29;30.23;;;15.43;;
19306;SDS011;9788;48.194;16.318;2024-01-30T02:47:58;30.27;;;15.27;;
19306;SDS011;9788;48.194;16.318;2024-01-30T02:50:25;29.97;;;15.40;;
19306;SDS011;9788;48.194;16.318;2024-01-30T02:52:54;29.07;;;15.77;;
19306;SDS011;9788;48.194;16.318;2024-01-30T02:55:24;30.43;;;15.80;;
19306;SDS011;9788;48.194;16.318;2024-01-30T02:57:52;30.63;;;15.37;;
19306;SDS011;9788;48.194;16.318;2024-01-30T03:00:21;28.60;;;15.37;;
19306;SDS011;9788;48.194;16.318;2024-01-30T03:02:49;30.87;;;15.13;;
19306;SDS011;9788;48.194;16.318;2024-01-30T03:05:18;28.57;;;15.37;;
19306;SDS011;9788;48.194;16.318;2024-01-30T03:07:47;30.77;;;15.90;;
19306;SDS011;9788;48.194;16.318;2024-01-30T03:10:15;31.47;;;16.70;;
19306;SDS011;9788;48.194;16.318;2024-01-30T03:12:45;29.70;;;16.20;;
19306;SDS011;9788;48.194;16.318;2024-01-30T03:15:13;31.00;;;15.67;;
19306;SDS011;9788;48.194;16.318;2024-01-30T03:17:42;31.67;;;16.37;;
19306;SDS011;9788;48.194;16.318;2024-01-30T03:20:11;32.40;;;14.80;;
19306;SDS011;9788;48.194;16.318;2024-01-30T03:22:39;27.53;;;15.10;;
19306;SDS011;9788;48.194;16.318;2024-01-30T03:25:07;31.43;;;15.93;;
19306;SDS011;9788;48.194;16.318;2024-01-30T03:27:37;31.67;;;16.10;;
19306;SDS011;9788;48.194;16.318;2024-01-30T03:30:09;30.07;;;15.13;;
19306;SDS011;9788;48.194;16.318;2024-01-30T03:32:37;28.10;;;15.13;;
19306;SDS011;9788;48.194;16.318;2024-01-30T03:35:05;31.33;;;15.57;;
19306;SDS011;9788;48.194;16.318;2024-01-30T03:37:35;27.23;;;15.27;;
19306;SDS011;9788;48.194;16.318;2024-01-30T03:40:04;31.70;;;15.70;;
19306;SDS011;9788;48.194;16.318;2024-01-30T03:42:35;32.50;;;16.57;;
19306;SDS011;9788;48.194;16.318;2024-01-30T03:45:04;32.70;;;15.67;;
19306;SDS011;9788;48.194;16.318;2024-01-30T03:47:34;30.57;;;16.37;;
19306;SDS011;9788;48.194;16.318;2024-01-30T03:50:03;28.90;;;16.17;;
19306;SDS011;9788;48.194;16.318;2024-01-30T03:52:32;30.07;;;16.03;;
19306;SDS011;9788;48.194;16.318;2024-01-30T03:55:00;31.17;;;15.90;;
19306;SDS011;9788;48.194;16.318;2024-01-30T03:57:29;29.67;;;15.83;;
19306;SDS011;9788;48.194;16.318;2024-01-30T03:59:57;33.30;;;16.33;;
19306;SDS011;9788;48.194;16.318;2024-01-30T04:02:28;30.30;;;16.63;;
19306;SDS011;9788;48.194;16.318;2024-01-30T04:04:58;30.50;;;15.57;;
19306;SDS011;9788;48.194;16.318;2024-01-30T04:07:26;31.83;;;17.17;;
19306;SDS011;9788;48.194;16.318;2024-01-30T04:09:55;31.40;;;16.07;;
19306;SDS011;9788;48.194;16.318;2024-01-30T04:12:23;32.57;;;16.13;;
19306;SDS011;9788;48.194;16.318;2024-01-30T04:14:52;32.93;;;16.10;;
19306;SDS011;9788;48.194;16.318;2024-01-30T04:17:20;29.70;;;15.93;;
19306;SDS011;9788;48.194;16.318;2024-01-30T04:19:48;31.93;;;16.80;;
19306;SDS011;9788;48.194;16.318;2024-01-30T04:22:18;36.47;;;17.13;;
19306;SDS011;9788;48.194;16.318;2024-01-30T04:24:46;31.40;;;16.47;;
19306;SDS011;9788;48.194;16.318;2024-01-30T04:27:14;32.40;;;16.57;;
19306;SDS011;9788;48.194;16.318;2024-01-30T04:29:43;35.30;;;16.73;;
19306;SDS011;9788;48.194;16.318;2024-01-30T04:32:12;31.23;;;17.20;;
19306;SDS011;9788;48.194;16.318;2024-01-30T04:34:40;30.53;;;16.83;;
19306;SDS011;9788;48.194;16.318;2024-01-30T04:37:09;32.87;;;16.90;;
19306;SDS011;9788;48.194;16.318;2024-01-30T04:39:39;38.37;;;18.13;;
19306;SDS011;9788;48.194;16.318;2024-01-30T04:42:08;35.43;;;18.33;;
19306;SDS011;9788;48.194;16.318;2024-01-30T04:44:36;37.47;;;18.67;;
19306;SDS011;9788;48.194;16.318;2024-01-30T04:47:04;36.97;;;18.17;;
19306;SDS011;9788;48.194;16.318;2024-01-30T04:49:35;38.87;;;18.10;;
19306;SDS011;9788;48.194;16.318;2024-01-30T04:52:03;33.47;;;18.20;;
19306;SDS011;9788;48.194;16.318;2024-01-30T04:54:32;37.40;;;18.13;;
19306;SDS011;9788;48.194;16.318;2024-01-30T04:57:02;37.13;;;19.10;;
19306;SDS011;9788;48.194;16.318;2024-01-30T04:59:32;39.50;;;18.60;;
19306;SDS011;9788;48.194;16.318;2024-01-30T05:02:00;40.93;;;18.97;;
19306;SDS011;9788;48.194;16.318;2024-01-30T05:04:29;37.93;;;19.20;;
19306;SDS011;9788;48.194;16.318;2024-01-30T05:06:57;40.67;;;20.03;;
19306;SDS011;9788;48.194;16.318;2024-01-30T05:09:26;41.10;;;18.93;;
19306;SDS011;9788;48.194;16.318;2024-01-30T05:11:54;46.13;;;21.20;;
19306;SDS011;9788;48.194;16.318;2024-01-30T05:14:24;34.93;;;18.87;;
19306;SDS011;9788;48.194;16.318;2024-01-30T05:16:52;38.70;;;19.73;;
19306;SDS011;9788;48.194;16.318;2024-01-30T05:19:20;42.33;;;20.17;;
19306;SDS011;9788;48.194;16.318;2024-01-30T05:21:50;37.80;;;19.57;;
19306;SDS011;9788;48.194;16.318;2024-01-30T05:24:18;42.57;;;20.70;;
19306;SDS011;9788;48.194;16.318;2024-01-30T05:26:48;42.70;;;21.53;;
19306;SDS011;9788;48.194;16.318;2024-01-30T05:29:17;40.00;;;20.40;;
19306;SDS011;9788;48.194;16.318;2024-01-30T05:31:47;37.67;;;19.73;;
19306;SDS011;9788;48.194;16.318;2024-01-30T05:34:16;36.43;;;19.33;;
19306;SDS011;9788;48.194;16.318;2024-01-30T05:36:44;38.57;;;19.80;;
19306;SDS011;9788;48.194;16.318;2024-01-30T05:39:14;44.90;;;19.93;;
19306;SDS011;9788;48.194;16.318;2024-01-30T05:41:42;43.07;;;19.93;;
19306;SDS011;9788;48.194;16.318;2024-01-30T05:44:10;36.87;;;19.80;;
19306;SDS011;9788;48.194;16.318;2024-01-30T05:46:38;39.77;;;20.03;;
19306;SDS011;9788;48.194;16.318;2024-01-30T05:49:08;45.63;;;21.10;;
19306;SDS011;9788;48.194;16.318;2024-01-30T05:51:36;39.00;;;19.73;;
19306;SDS011;9788;48.194;16.318;2024-01-30T05:54:04;36.87;;;20.10;;
19306;SDS011;9788;48.194;16.318;2024-01-30T05:56:33;35.27;;;18.50;;
19306;SDS011;9788;48.194;16.318;2024-01-30T05:59:01;34.63;;;18.47;;
19306;SDS011;9788;48.194;16.318;2024-01-30T06:01:33;38.93;;;19.20;;
19306;SDS011;9788;48.194;16.318;2024-01-30T06:04:03;38.67;;;18.93;;
19306;SDS011;9788;48.194;16.318;2024-01-30T06:06:34;39.30;;;19.63;;
19306;SDS011;9788;48.194;16.318;2024-01-30T06:09:03;40.50;;;17.73;;
19306;SDS011;9788;48.194;16.318;2024-01-30T06:11:31;36.00;;;18.43;;
19306;SDS011;9788;48.194;16.318;2024-01-30T06:14:00;43.77;;;19.30;;
19306;SDS011;9788;48.194;16.318;2024-01-30T06:16:28;39.33;;;19.73;;
19306;SDS011;9788;48.194;16.318;2024-01-30T06:19:02;42.57;;;18.73;;
19306;SDS011;9788;48.194;16.318;2024-01-30T06:21:45;41.93;;;19.87;;
19306;SDS011;9788;48.194;16.318;2024-01-30T06:24:13;35.87;;;18.80;;
19306;SDS011;9788;48.194;16.318;2024-01-30T06:26:41;36.23;;;18.80;;
19306;SDS011;9788;48.194;16.318;2024-01-30T06:29:11;36.13;;;18.33;;
19306;SDS011;9788;48.194;16.318;2024-01-30T06:31:45;37.47;;;19.17;;
19306;SDS011;9788;48.194;16.318;2024-01-30T06:34:14;39.07;;;19.50;;
19306;SDS011;9788;48.194;16.318;2024-01-30T06:36:44;39.67;;;19.23;;
19306;SDS011;9788;48.194;16.318;2024-01-30T06:39:13;48.23;;;22.30;;
19306;SDS011;9788;48.194;16.318;2024-01-30T06:41:41;40.83;;;20.27;;
19306;SDS011;9788;48.194;16.318;2024-01-30T06:44:09;34.13;;;18.97;;
19306;SDS011;9788;48.194;16.318;2024-01-30T06:46:38;36.17;;;19.47;;
19306;SDS011;9788;48.194;16.318;2024-01-30T06:49:09;40.70;;;19.87;;
19306;SDS011;9788;48.194;16.318;2024-01-30T06:51:37;42.47;;;20.50;;
19306;SDS011;9788;48.194;16.318;2024-01-30T06:54:06;44.77;;;19.13;;
19306;SDS011;9788;48.194;16.318;2024-01-30T06:56:36;38.10;;;18.37;;
19306;SDS011;9788;48.194;16.318;2024-01-30T06:59:05;38.67;;;19.00;;
19306;SDS011;9788;48.194;16.318;2024-01-30T07:01:34;41.23;;;22.80;;
19306;SDS011;9788;48.194;16.318;2024-01-30T07:04:04;37.33;;;18.97;;
19306;SDS011;9788;48.194;16.318;2024-01-30T07:06:33;37.33;;;18.33;;
19306;SDS011;9788;48.194;16.318;2024-01-30T07:09:01;38.30;;;18.93;;
19306;SDS011;9788;48.194;16.318;2024-01-30T07:11:33;35.30;;;17.93;;
19306;SDS011;9788;48.194;16.318;2024-01-30T07:14:01;40.47;;;18.73;;
19306;SDS011;9788;48.194;16.318;2024-01-30T07:16:30;37.20;;;18.67;;
19306;SDS011;9788;48.194;16.318;2024-01-30T07:18:58;34.40;;;19.17;;
19306;SDS011;9788;48.194;16.318;2024-01-30T07:21:27;40.77;;;19.67;;
19306;SDS011;9788;48.194;16.318;2024-01-30T07:23:56;33.80;;;19.13;;
19306;SDS011;9788;48.194;16.318;2024-01-30T07:26:24;33.83;;;18.17;;
19306;SDS011;9788;48.194;16.318;2024-01-30T07:28:54;34.43;;;18.00;;
19306;SDS011;9788;48.194;16.318;2024-01-30T07:31:22;33.03;;;17.43;;
19306;SDS011;9788;48.194;16.318;2024-01-30T07:33:50;33.50;;;17.47;;
19306;SDS011;9788;48.194;16.318;2024-01-30T07:36:19;35.43;;;17.37;;
19306;SDS011;9788;48.194;16.318;2024-01-30T07:38:48;31.10;;;17.13;;
19306;SDS011;9788;48.194;16.318;2024-01-30T07:41:16;36.07;;;17.97;;
19306;SDS011;9788;48.194;16.318;2024-01-30T07:43:44;36.60;;;18.00;;
19306;SDS011;9788;48.194;16.318;2024-01-30T07:46:14;35.07;;;18.90;;
19306;SDS011;9788;48.194;16.318;2024-01-30T07:48:42;35.30;;;17.43;;
19306;SDS011;9788;48.194;16.318;2024-01-30T07:51:11;35.53;;;17.40;;
19306;SDS011;9788;48.194;16.318;2024-01-30T07:53:42;34.30;;;19.07;;
19306;SDS011;9788;48.194;16.318;2024-01-30T07:56:29;33.63;;;16.97;;
19306;SDS011;9788;48.194;16.318;2024-01-30T07:58:58;32.30;;;17.67;;
19306;SDS011;9788;48.194;16.318;2024-01-30T08:01:27;30.00;;;17.30;;
19306;SDS011;9788;48.194;16.318;2024-01-30T08:03:55;36.97;;;18.93;;
19306;SDS011;9788;48.194;16.318;2024-01-30T08:06:24;36.57;;;18.20;;
19306;SDS011;9788;48.194;16.318;2024-01-30T08:08:52;30.90;;;16.13;;
19306;SDS011;9788;48.194;16.318;2024-01-30T08:11:20;35.47;;;17.70;;
19306;SDS011;9788;48.194;16.318;2024-01-30T08:13:52;30.43;;;16.37;;
19306;SDS011;9788;48.194;16.318;2024-01-30T08:16:22;30.17;;;17.07;;
19306;SDS011;9788;48.194;16.318;2024-01-30T08:18:52;30.10;;;16.80;;
19306;SDS011;9788;48.194;16.318;2024-01-30T08:21:26;26.30;;;15.37;;
19306;SDS011;9788;48.194;16.318;2024-01-30T08:23:55;35.10;;;16.73;;
19306;SDS011;9788;48.194;16.318;2024-01-30T08:26:25;28.20;;;15.77;;
19306;SDS011;9788;48.194;16.318;2024-01-30T08:28:54;30.23;;;16.40;;
19306;SDS011;9788;48.194;16.318;2024-01-30T08:31:23;31.00;;;15.07;;
19306;SDS011;9788;48.194;16.318;2024-01-30T08:33:54;26.97;;;16.40;;
19306;SDS011;9788;48.194;16.318;2024-01-30T08:36:22;32.93;;;15.80;;
19306;SDS011;9788;48.194;16.318;2024-01-30T08:38:50;29.37;;;16.37;;
19306;SDS011;9788;48.194;16.318;2024-01-30T08:41:26;26.90;;;15.33;;
19306;SDS011;9788;48.194;16.318;2024-01-30T08:43:55;28.97;;;16.23;;
19306;SDS011;9788;48.194;16.318;2024-01-30T08:46:23;28.20;;;15.73;;
19306;SDS011;9788;48.194;16.318;2024-01-30T08:48:53;25.60;;;15.93;;
19306;SDS011;9788;48.194;16.318;2024-01-30T08:51:22;28.47;;;15.40;;
19306;SDS011;9788;48.194;16.318;2024-01-30T08:53:50;25.67;;;15.60;;
19306;SDS011;9788;48.194;16.318;2024-01-30T08:56:20;27.37;;;15.50;;
19306;SDS011;9788;48.194;16.318;2024-01-30T08:58:48;33.27;;;15.63;;
19306;SDS011;9788;48.194;16.318;2024-01-30T09:01:16;29.97;;;15.53;;
19306;SDS011;9788;48.194;16.318;2024-01-30T09:03:45;26.73;;;15.43;;
19306;SDS011;9788;48.194;16.318;2024-01-30T09:06:15;26.77;;;15.10;;
19306;SDS011;9788;48.194;16.318;2024-01-30T09:08:51;29.77;;;14.77;;
19306;SDS011;9788;48.194;16.318;2024-01-30T09:11:24;26.77;;;15.53;;
19306;SDS011;9788;48.194;16.318;2024-01-30T09:13:57;28.80;;;14.63;;
19306;SDS011;9788;48.194;16.318;2024-01-30T09:16:29;28.33;;;15.17;;
19306;SDS011;9788;48.194;16.318;2024-01-30T09:18:59;23.70;;;13.70;;
19306;SDS011;9788;48.194;16.318;2024-01-30T09:21:28;24.23;;;13.67;;
19306;SDS011;9788;48.194;16.318;2024-01-30T09:24:01;27.10;;;14.30;;
19306;SDS011;9788;48.194;16.318;2024-01-30T09:26:31;25.27;;;13.07;;
19306;SDS011;9788;48.194;16.318;2024-01-30T09:28:59;22.65;;;13.38;;
19306;SDS011;9788;48.194;16.318;2024-01-30T09:31:27;18.08;;;13.02;;
19306;SDS011;9788;48.194;16.318;2024-01-30T09:33:56;19.52;;;12.80;;
19306;SDS011;9788;48.194;16.318;2024-01-30T09:36:24;21.60;;;13.25;;
19306;SDS011;9788;48.194;16.318;2024-01-30T09:38:55;20.10;;;13.07;;
19306;SDS011;9788;48.194;16.318;2024-01-30T09:41:24;21.73;;;12.68;;
19306;SDS011;9788;48.194;16.318;2024-01-30T09:43:53;17.45;;;12.35;;
19306;SDS011;9788;48.194;16.318;2024-01-30T09:46:25;24.92;;;13.63;;
19306;SDS011;9788;48.194;16.318;2024-01-30T09:48:56;21.35;;;13.00;;
19306;SDS011;9788;48.194;16.318;2024-01-30T09:51:26;21.10;;;13.20;;
19306;SDS011;9788;48.194;16.318;2024-01-30T09:53:56;20.05;;;12.57;;
19306;SDS011;9788;48.194;16.318;2024-01-30T09:56:25;20.30;;;12.95;;
19306;SDS011;9788;48.194;16.318;2024-01-30T09:58:53;20.58;;;13.25;;
19306;SDS011;9788;48.194;16.318;2024-01-30T10:01:21;20.58;;;12.75;;
19306;SDS011;9788;48.194;16.318;2024-01-30T10:03:50;21.80;;;13.30;;
19306;SDS011;9788;48.194;16.318;2024-01-30T10:06:19;24.73;;;13.38;;
19306;SDS011;9788;48.194;16.318;2024-01-30T10:08:50;20.88;;;13.40;;
19306;SDS011;9788;48.194;16.318;2024-01-30T10:11:20;19.90;;;13.20;;
19306;SDS011;9788;48.194;16.318;2024-01-30T10:13:51;19.77;;;12.93;;
19306;SDS011;9788;48.194;16.318;2024-01-30T10:16:20;18.27;;;12.98;;
19306;SDS011;9788;48.194;16.318;2024-01-30T10:18:48;21.42;;;13.10;;
19306;SDS011;9788;48.194;16.318;2024-01-30T10:21:18;20.13;;;13.57;;
19306;SDS011;9788;48.194;16.318;2024-01-30T10:23:47;20.17;;;13.80;;
19306;SDS011;9788;48.194;16.318;2024-01-30T10:26:18;20.25;;;12.90;;
19306;SDS011;9788;48.194;16.318;2024-01-30T10:28:48;20.27;;;12.75;;
19306;SDS011;9788;48.194;16.318;2024-01-30T10:31:20;19.85;;;12.65;;
19306;SDS011;9788;48.194;16.318;2024-01-30T10:33:51;19.85;;;13.00;;
19306;SDS011;9788;48.194;16.318;2024-01-30T10:36:34;20.50;;;13.20;;
19306;SDS011;9788;48.194;16.318;2024-01-30T10:39:07;20.95;;;12.80;;
19306;SDS011;9788;48.194;16.318;2024-01-30T10:41:43;20.30;;;13.15;;
19306;SDS011;9788;48.194;16.318;2024-01-30T10:44:12;20.98;;;12.63;;
19306;SDS011;9788;48.194;16.318;2024-01-30T10:46:48;18.42;;;12.02;;
19306;SDS011;9788;48.194;16.318;2024-01-30T10:49:18;20.45;;;13.38;;
19306;SDS011;9788;48.194;16.318;2024-01-30T10:51:49;19.63;;;13.00;;
19306;SDS011;9788;48.194;16.318;2024-01-30T10:54:19;20.67;;;12.80;;
19306;SDS011;9788;48.194;16.318;2024-01-30T10:56:50;20.25;;;12.93;;
19306;SDS011;9788;48.194;16.318;2024-01-30T10:59:20;21.05;;;12.88;;
19306;SDS011;9788;48.194;16.318;2024-01-30T11:01:51;18.30;;;12.18;;
19306;SDS011;9788;48.194;16.318;2024-01-30T11:04:22;20.58;;;12.95;;
19306;SDS011;9788;48.194;16.318;2024-01-30T11:06:52;19.50;;;12.55;;
19306;SDS011;9788;48.194;16.318;2024-01-30T11:09:22;16.98;;;12.27;;
19306;SDS011;9788;48.194;16.318;2024-01-30T11:11:56;20.75;;;12.55;;
19306;SDS011;9788;48.194;16.318;2024-01-30T11:14:27;19.25;;;11.38;;
19306;SDS011;9788;48.194;16.318;2024-01-30T11:16:57;18.00;;;11.93;;
19306;SDS011;9788;48.194;16.318;2024-01-30T11:19:26;22.35;;;12.73;;
19306;SDS011;9788;48.194;16.318;2024-01-30T11:22:01;17.23;;;11.13;;
19306;SDS011;9788;48.194;16.318;2024-01-30T11:24:36;19.05;;;12.02;;
19306;SDS011;9788;48.194;16.318;2024-01-30T11:27:09;19.25;;;12.40;;
19306;SDS011;9788;48.194;16.318;2024-01-30T11:29:37;18.15;;;11.20;;
19306;SDS011;9788;48.194;16.318;2024-01-30T11:32:07;19.75;;;11.10;;
19306;SDS011;9788;48.194;16.318;2024-01-30T11:34:36;19.38;;;11.60;;
19306;SDS011;9788;48.194;16.318;2024-01-30T11:37:09;18.08;;;11.57;;
19306;SDS011;9788;48.194;16.318;2024-01-30T11:39:41;20.10;;;11.68;;
19306;SDS011;9788;48.194;16.318;2024-01-30T11:42:13;21.75;;;12.50;;
19306;SDS011;9788;48.194;16.318;2024-01-30T11:44:46;20.25;;;12.52;;
19306;SDS011;9788;48.194;16.318;2024-01-30T11:47:15;18.55;;;11.57;;
19306;SDS011;9788;48.194;16.318;2024-01-30T11:49:44;18.17;;;10.95;;
19306;SDS011;9788;48.194;16.318;2024-01-30T11:52:14;17.08;;;11.13;;
19306;SDS011;9788;48.194;16.318;2024-01-30T11:54:43;16.83;;;11.20;;
19306;SDS011;9788;48.194;16.318;2024-01-30T11:57:12;19.38;;;11.68;;
19306;SDS011;9788;48.194;16.318;2024-01-30T11:59:41;22.00;;;11.50;;
19306;SDS011;9788;48.194;16.318;2024-01-30T12:02:09;18.48;;;11.00;;
19306;SDS011;9788;48.194;16.318;2024-01-30T12:04:44;17.65;;;11.43;;
19306;SDS011;9788;48.194;16.318;2024-01-30T12:07:12;20.00;;;11.10;;
19306;SDS011;9788;48.194;16.318;2024-01-30T12:09:51;18.05;;;12.27;;
19306;SDS011;9788;48.194;16.318;2024-01-30T12:12:22;19.27;;;11.60;;
19306;SDS011;9788;48.194;16.318;2024-01-30T12:14:51;18.58;;;11.15;;
19306;SDS011;9788;48.194;16.318;2024-01-30T12:17:24;18.75;;;12.18;;
19306;SDS011;9788;48.194;16.318;2024-01-30T12:20:03;20.27;;;11.38;;
19306;SDS011;9788;48.194;16.318;2024-01-30T12:22:35;19.33;;;12.30;;
19306;SDS011;9788;48.194;16.318;2024-01-30T12:25:07;18.58;;;11.35;;
19306;SDS011;9788;48.194;16.318;2024-01-30T12:27:37;21.17;;;11.77;;
19306;SDS011;9788;48.194;16.318;2024-01-30T12:30:07;17.13;;;11.27;;
19306;SDS011;9788;48.194;16.318;2024-01-30T12:32:40;16.02;;;11.43;;
19306;SDS011;9788;48.194;16.318;2024-01-30T12:35:10;19.20;;;11.88;;
19306;SDS011;9788;48.194;16.318;2024-01-30T12:37:40;20.50;;;11.45;;
19306;SDS011;9788;48.194;16.318;2024-01-30T12:40:13;19.42;;;12.43;;
19306;SDS011;9788;48.194;16.318;2024-01-30T12:42:46;22.48;;;12.30;;
19306;SDS011;9788;48.194;16.318;2024-01-30T12:45:16;21.98;;;13.00;;
19306;SDS011;9788;48.194;16.318;2024-01-30T12:47:50;20.88;;;12.65;;
19306;SDS011;9788;48.194;16.318;2024-01-30T12:50:19;24.05;;;11.73;;
19306;SDS011;9788;48.194;16.318;2024-01-30T12:52:48;24.27;;;12.15;;
19306;SDS011;9788;48.194;16.318;2024-01-30T12:55:17;27.20;;;13.77;;
19306;SDS011;9788;48.194;16.318;2024-01-30T12:57:57;19.80;;;11.77;;
19306;SDS011;9788;48.194;16.318;2024-01-30T13:00:26;19.50;;;11.57;;
19306;SDS011;9788;48.194;16.318;2024-01-30T13:02:57;21.67;;;11.77;;
19306;SDS011;9788;48.194;16.318;2024-01-30T13:05:27;17.90;;;11.10;;
19306;SDS011;9788;48.194;16.318;2024-01-30T13:07:56;25.37;;;12.40;;
19306;SDS011;9788;48.194;16.318;2024-01-30T13:10:25;22.60;;;11.43;;
19306;SDS011;9788;48.194;16.318;2024-01-30T13:12:54;18.17;;;11.37;;
19306;SDS011;9788;48.194;16.318;2024-01-30T13:15:26;18.77;;;11.70;;
19306;SDS011;9788;48.194;16.318;2024-01-30T13:17:54;19.13;;;11.03;;
19306;SDS011;9788;48.194;16.318;2024-01-30T13:20:23;18.40;;;11.70;;
19306;SDS011;9788;48.194;16.318;2024-01-30T13:22:52;19.47;;;10.60;;
19306;SDS011;9788;48.194;16.318;2024-01-30T13:25:23;17.90;;;10.87;;
19306;SDS011;9788;48.194;16.318;2024-01-30T13:27:53;21.30;;;11.77;;
19306;SDS011;9788;48.194;16.318;2024-01-30T13:30:23;22.63;;;11.37;;
19306;SDS011;9788;48.194;16.318;2024-01-30T13:32:53;21.27;;;11.63;;
19306;SDS011;9788;48.194;16.318;2024-01-30T13:35:21;17.70;;;10.57;;
19306;SDS011;9788;48.194;16.318;2024-01-30T13:37:50;18.93;;;11.17;;
19306;SDS011;9788;48.194;16.318;2024-01-30T13:40:18;18.23;;;10.80;;
19306;SDS011;9788;48.194;16.318;2024-01-30T13:42:50;19.43;;;11.70;;
19306;SDS011;9788;48.194;16.318;2024-01-30T13:45:18;20.10;;;11.13;;
19306;SDS011;9788;48.194;16.318;2024-01-30T13:47:51;18.87;;;11.63;;
19306;SDS011;9788;48.194;16.318;2024-01-30T13:50:26;21.40;;;11.87;;
19306;SDS011;9788;48.194;16.318;2024-01-30T13:52:54;19.60;;;12.10;;
19306;SDS011;9788;48.194;16.318;2024-01-30T13:55:24;18.40;;;11.23;;
19306;SDS011;9788;48.194;16.318;2024-01-30T13:57:53;22.50;;;11.87;;
19306;SDS011;9788;48.194;16.318;2024-01-30T14:00:24;18.13;;;10.63;;
19306;SDS011;9788;48.194;16.318;2024-01-30T14:02:54;22.03;;;11.67;;
19306;SDS011;9788;48.194;16.318;2024-01-30T14:05:26;20.47;;;12.33;;
19306;SDS011;9788;48.194;16.318;2024-01-30T14:07:57;19.90;;;11.33;;
19306;SDS011;9788;48.194;16.318;2024-01-30T14:10:27;20.77;;;11.10;;
19306;SDS011;9788;48.194;16.318;2024-01-30T14:12:56;20.57;;;11.67;;
19306;SDS011;9788;48.194;16.318;2024-01-30T14:15:26;21.40;;;11.53;;
19306;SDS011;9788;48.194;16.318;2024-01-30T14:17:59;19.70;;;10.87;;
19306;SDS011;9788;48.194;16.318;2024-01-30T14:20:28;20.47;;;11.23;;
19306;SDS011;9788;48.194;16.318;2024-01-30T14:23:07;19.33;;;11.40;;
19306;SDS011;9788;48.194;16.318;2024-01-30T14:25:46;17.47;;;10.00;;
19306;SDS011;9788;48.194;16.318;2024-01-30T14:28:15;20.80;;;11.23;;
19306;SDS011;9788;48.194;16.318;2024-01-30T14:30:46;21.97;;;11.17;;
19306;SDS011;9788;48.194;16.318;2024-01-30T14:33:20;19.87;;;10.93;;
19306;SDS011;9788;48.194;16.318;2024-01-30T14:35:48;15.87;;;10.60;;